Overton, Nevada
Current Conditions -  °F | °C
As of 2:58 PM on Wednesday 26 Nov 2014 (Local Time) from KLSV Reporting Station
Clear Clear  
Wind Chill: 67°   Ceiling: Unl
Heat Index: 67°   Visibility: 10mi
Dew Point: 16°   Wind: 1mph
Humidity: 14%   Direction: 230°SW
Pressure: 30.29"   Gusts: NA
Location:  36.54°N, 114.45°W
Report Text: KLSV 262258Z AUTO 23001KT 10SM CLR 19/M09 A3029 RMK AO2 SLP254 T01931087
Loading
Personal Weather Stations






























Interactive Weather Map New forecast layout! Learn more

10-Day Weather Forecast

Advertisements
Track Severe Weather on mobile